createdAt,value
2019-02-25T00:00:30.677Z,0.00
2019-02-25T00:01:30.671Z,0.00
2019-02-25T00:02:30.665Z,0.00
2019-02-25T00:03:30.675Z,0.00
2019-02-25T00:04:30.627Z,0.00
2019-02-25T00:05:30.619Z,0.00
2019-02-25T00:06:30.615Z,0.00
2019-02-25T00:07:30.603Z,0.00
2019-02-25T00:08:30.637Z,0.00
2019-02-25T00:09:30.575Z,0.00
2019-02-25T00:10:30.561Z,0.00
2019-02-25T00:11:30.553Z,0.00
2019-02-25T00:12:30.541Z,0.00
2019-02-25T00:13:30.560Z,0.00
2019-02-25T00:14:30.521Z,0.00
2019-02-25T00:15:30.525Z,0.00
2019-02-25T00:16:30.492Z,0.00
2019-02-25T00:17:30.483Z,0.00
2019-02-25T00:18:30.481Z,0.00
2019-02-25T00:19:30.499Z,0.00
2019-02-25T00:20:30.450Z,0.00
2019-02-25T00:21:30.439Z,0.00
2019-02-25T00:22:30.425Z,0.00
2019-02-25T00:23:30.418Z,0.00
2019-02-25T00:24:30.429Z,0.00
2019-02-25T00:25:30.391Z,0.00
2019-02-25T00:26:30.388Z,0.00
2019-02-25T00:27:30.403Z,0.00
2019-02-25T00:28:30.359Z,0.00
2019-02-25T00:29:30.371Z,0.00
2019-02-25T00:30:30.352Z,0.00
2019-02-25T00:31:30.339Z,0.00
2019-02-25T00:32:30.331Z,0.00
2019-02-25T00:33:30.317Z,0.00
2019-02-25T00:34:30.329Z,0.00
2019-02-25T00:35:30.309Z,0.00
2019-02-25T00:36:30.291Z,0.00
2019-02-25T00:37:30.279Z,0.00
2019-02-25T00:38:30.269Z,0.00
2019-02-25T00:39:30.290Z,0.00
2019-02-25T00:40:30.254Z,0.00
2019-02-25T00:41:30.239Z,0.00
2019-02-25T00:42:30.237Z,0.00
2019-02-25T00:43:30.219Z,0.00
2019-02-25T00:44:30.233Z,0.00
2019-02-25T00:45:30.198Z,0.00
2019-02-25T00:46:30.180Z,0.00
2019-02-25T00:47:30.176Z,0.00
2019-02-25T00:48:30.169Z,0.00
2019-02-25T00:49:30.192Z,0.00
2019-02-25T00:50:30.145Z,0.00
2019-02-25T00:51:30.134Z,0.00
2019-02-25T00:52:30.143Z,0.00
2019-02-25T00:53:30.123Z,0.00
2019-02-25T00:54:30.127Z,0.00
2019-02-25T00:55:30.085Z,0.00
2019-02-25T00:56:30.072Z,0.00
2019-02-25T00:57:30.060Z,0.00
2019-02-25T00:58:30.050Z,0.00
2019-02-25T00:59:30.069Z,0.00
2019-02-25T01:00:30.031Z,0.00
2019-02-25T01:01:30.019Z,0.00
2019-02-25T01:02:30.021Z,0.00
2019-02-25T01:03:30.012Z,0.00
2019-02-25T01:04:30.056Z,0.00
2019-02-25T01:05:30.001Z,0.00
2019-02-25T01:06:29.980Z,0.00
2019-02-25T01:07:29.968Z,0.00
2019-02-25T01:08:29.957Z,0.00
2019-02-25T01:09:29.977Z,0.00
2019-02-25T01:10:29.944Z,0.00
2019-02-25T01:11:29.929Z,0.00
2019-02-25T01:12:29.913Z,0.00
2019-02-25T01:13:29.905Z,0.00
2019-02-25T01:14:29.925Z,0.00
2019-02-25T01:15:29.880Z,0.00
2019-02-25T01:16:29.884Z,0.00
2019-02-25T01:17:29.862Z,0.00
2019-02-25T01:18:29.846Z,0.00
2019-02-25T01:19:29.860Z,0.00
2019-02-25T01:20:29.819Z,0.00
2019-02-25T01:21:29.816Z,0.00
2019-02-25T01:22:29.818Z,0.00
2019-02-25T01:23:29.801Z,0.00
2019-02-25T01:24:29.824Z,0.00
2019-02-25T01:25:29.788Z,0.00
2019-02-25T01:26:29.771Z,0.00
2019-02-25T01:27:29.759Z,0.00
2019-02-25T01:28:29.755Z,0.00
2019-02-25T01:29:29.761Z,0.00
2019-02-25T01:30:29.722Z,0.00
2019-02-25T01:31:29.724Z,0.00
2019-02-25T01:32:29.702Z,0.00
2019-02-25T01:33:29.699Z,0.00
2019-02-25T01:34:29.715Z,0.00
2019-02-25T01:35:29.687Z,0.00
2019-02-25T01:36:29.662Z,0.00
2019-02-25T01:37:29.659Z,0.00
2019-02-25T01:38:29.644Z,0.00
2019-02-25T01:39:29.660Z,0.00
2019-02-25T01:40:29.629Z,0.00
2019-02-25T01:41:29.612Z,0.00
2019-02-25T01:42:29.598Z,0.00
2019-02-25T01:43:29.594Z,0.00
2019-02-25T01:44:29.618Z,0.00
2019-02-25T01:45:29.570Z,0.00
2019-02-25T01:46:29.562Z,0.00
2019-02-25T01:47:29.550Z,0.00
2019-02-25T01:48:29.539Z,0.00
2019-02-25T01:49:29.552Z,0.00
2019-02-25T01:50:29.517Z,0.00
2019-02-25T01:51:29.507Z,0.00
2019-02-25T01:52:29.502Z,0.00
2019-02-25T01:53:29.487Z,0.00
2019-02-25T01:54:29.512Z,0.00
2019-02-25T01:55:29.487Z,0.00
2019-02-25T01:56:29.455Z,0.00
2019-02-25T01:57:29.447Z,0.00
2019-02-25T01:58:29.447Z,0.00
2019-02-25T01:59:29.461Z,0.00
2019-02-25T02:00:29.415Z,0.00
2019-02-25T02:01:29.402Z,0.00
2019-02-25T02:02:29.390Z,0.00
2019-02-25T02:03:29.384Z,0.00
2019-02-25T02:04:29.385Z,0.00
2019-02-25T02:05:29.400Z,0.00
2019-02-25T02:06:29.354Z,0.00
2019-02-25T02:07:29.340Z,0.00
2019-02-25T02:08:29.346Z,0.00
2019-02-25T02:09:29.316Z,0.00
2019-02-25T02:10:29.336Z,0.00
2019-02-25T02:11:29.291Z,0.00
2019-02-25T02:12:29.294Z,0.00
2019-02-25T02:13:29.276Z,0.00
2019-02-25T02:14:29.265Z,0.00
2019-02-25T02:15:29.288Z,0.00
2019-02-25T02:16:29.269Z,0.00
2019-02-25T02:17:29.239Z,0.00
2019-02-25T02:18:29.228Z,0.00
2019-02-25T02:19:29.213Z,0.00
2019-02-25T02:20:29.238Z,0.00
2019-02-25T02:21:29.194Z,0.00
2019-02-25T02:22:29.185Z,0.00
2019-02-25T02:23:29.162Z,0.00
2019-02-25T02:24:29.156Z,0.00
2019-02-25T02:25:29.176Z,0.00
2019-02-25T02:26:29.156Z,0.00
2019-02-25T02:27:29.164Z,0.00
2019-02-25T02:28:29.133Z,0.00
2019-02-25T02:29:29.107Z,0.00
2019-02-25T02:30:29.122Z,0.00
2019-02-25T02:31:29.083Z,0.00
2019-02-25T02:32:29.069Z,0.00
2019-02-25T02:33:29.060Z,0.00
2019-02-25T02:34:29.052Z,0.00
2019-02-25T02:35:29.062Z,0.00
2019-02-25T02:36:29.075Z,0.00
2019-02-25T02:37:29.026Z,0.00
2019-02-25T02:38:29.010Z,0.00
2019-02-25T02:39:28.997Z,0.00
2019-02-25T02:40:29.026Z,0.00
2019-02-25T02:41:28.972Z,0.00
2019-02-25T02:42:28.963Z,0.00
2019-02-25T02:43:28.951Z,0.00
2019-02-25T02:44:28.982Z,0.00
2019-02-25T02:45:28.955Z,0.00
2019-02-25T02:46:28.920Z,0.00
2019-02-25T02:47:28.911Z,0.00
2019-02-25T02:48:28.901Z,0.00
2019-02-25T02:49:28.907Z,0.00
2019-02-25T02:50:28.917Z,0.00
2019-02-25T02:51:28.880Z,0.00
2019-02-25T02:52:28.856Z,0.00
2019-02-25T02:53:28.852Z,0.00
2019-02-25T02:54:28.848Z,0.00
2019-02-25T02:55:28.891Z,0.00
2019-02-25T02:56:28.811Z,0.00
2019-02-25T02:57:28.826Z,0.00
2019-02-25T02:58:28.791Z,0.00
2019-02-25T02:59:28.791Z,0.00
2019-02-25T03:00:28.793Z,0.00
2019-02-25T03:01:28.783Z,0.00
2019-02-25T03:02:28.783Z,0.00
2019-02-25T03:03:28.759Z,0.00
2019-02-25T03:04:28.738Z,0.00
2019-02-25T03:05:28.744Z,0.00
2019-02-25T03:06:28.714Z,0.00
2019-02-25T03:07:28.718Z,0.00
2019-02-25T03:08:28.690Z,0.00
2019-02-25T03:09:28.679Z,0.00
2019-02-25T03:10:28.696Z,0.00
2019-02-25T03:11:28.667Z,0.00
2019-02-25T03:12:28.650Z,0.00
2019-02-25T03:13:28.640Z,0.00
2019-02-25T03:14:28.631Z,0.00
2019-02-25T03:15:28.653Z,0.00
2019-02-25T03:16:28.597Z,0.00
2019-02-25T03:17:28.600Z,0.00
2019-02-25T03:18:28.597Z,0.00
2019-02-25T03:19:28.574Z,0.00
2019-02-25T03:20:28.604Z,0.00
2019-02-25T03:21:28.550Z,0.00
2019-02-25T03:22:28.535Z,0.00
2019-02-25T03:23:28.539Z,0.00
2019-02-25T03:24:28.514Z,0.00
2019-02-25T03:25:28.538Z,0.00
2019-02-25T03:26:28.501Z,0.00
2019-02-25T03:27:28.485Z,0.00
2019-02-25T03:28:28.476Z,0.00
2019-02-25T03:29:28.470Z,0.00
2019-02-25T03:30:28.491Z,0.00
2019-02-25T03:31:28.439Z,0.00
2019-02-25T03:32:28.430Z,0.00
2019-02-25T03:33:28.424Z,0.00
2019-02-25T03:34:28.414Z,0.00
2019-02-25T03:35:28.427Z,0.00
2019-02-25T03:36:28.376Z,0.00
2019-02-25T03:37:28.368Z,0.00
2019-02-25T03:38:28.365Z,0.00
2019-02-25T03:39:28.359Z,0.00
2019-02-25T03:40:28.378Z,0.00
2019-02-25T03:41:28.342Z,0.00
2019-02-25T03:42:28.344Z,0.00
2019-02-25T03:43:28.319Z,0.00
2019-02-25T03:44:28.320Z,0.00
2019-02-25T03:45:28.344Z,0.00
2019-02-25T03:46:28.290Z,0.00
2019-02-25T03:47:28.283Z,0.00
2019-02-25T03:48:28.281Z,0.00
2019-02-25T03:49:28.255Z,0.00
2019-02-25T03:50:28.254Z,0.00
2019-02-25T03:51:28.279Z,0.00
2019-02-25T03:52:28.223Z,0.00
2019-02-25T03:53:28.222Z,0.00
2019-02-25T03:54:28.203Z,0.00
2019-02-25T03:55:28.718Z,0.00
2019-02-25T03:56:28.235Z,0.00
2019-02-25T03:57:28.169Z,0.00
2019-02-25T03:58:28.177Z,0.00
2019-02-25T03:59:28.159Z,0.00
2019-02-25T04:00:28.161Z,0.00
2019-02-25T04:01:28.170Z,0.00
2019-02-25T04:02:28.141Z,0.00
2019-02-25T04:03:28.119Z,0.00
2019-02-25T04:04:28.109Z,0.00
2019-02-25T04:05:28.113Z,0.00
2019-02-25T04:06:28.104Z,0.00
2019-02-25T04:07:28.060Z,0.00
2019-02-25T04:08:28.054Z,0.00
2019-02-25T04:09:28.046Z,0.00
2019-02-25T04:10:28.041Z,0.00
2019-02-25T04:11:28.046Z,0.00
2019-02-25T04:12:29.303Z,0.00
2019-02-25T04:13:28.004Z,0.00
2019-02-25T04:14:27.986Z,0.00
2019-02-25T04:15:27.977Z,0.00
2019-02-25T04:16:27.991Z,0.00
2019-02-25T04:17:27.971Z,0.00
2019-02-25T04:18:27.956Z,0.00
2019-02-25T04:19:27.942Z,0.00
2019-02-25T04:20:27.930Z,0.00
2019-02-25T04:21:27.956Z,0.00
2019-02-25T04:22:27.926Z,0.00
2019-02-25T04:23:27.912Z,0.00
2019-02-25T04:24:27.884Z,0.00
2019-02-25T04:25:27.874Z,0.00
2019-02-25T04:26:27.934Z,0.00
2019-02-25T04:27:27.875Z,0.00
2019-02-25T04:28:27.849Z,0.00
2019-02-25T04:29:27.849Z,0.00
2019-02-25T04:30:27.833Z,0.00
2019-02-25T04:31:27.869Z,0.00
2019-02-25T04:32:27.812Z,0.00
2019-02-25T04:33:27.801Z,0.00
2019-02-25T04:34:27.810Z,0.00
2019-02-25T04:35:27.794Z,0.00
2019-02-25T04:36:27.802Z,0.00
2019-02-25T04:37:27.769Z,0.00
2019-02-25T04:38:27.754Z,0.00
2019-02-25T04:39:27.739Z,0.00
2019-02-25T04:40:27.733Z,0.00
2019-02-25T04:41:27.746Z,0.00
2019-02-25T04:42:27.710Z,0.00
2019-02-25T04:43:27.694Z,0.00
2019-02-25T04:44:27.685Z,0.00
2019-02-25T04:45:27.676Z,0.00
2019-02-25T04:46:27.691Z,0.00
2019-02-25T04:47:27.661Z,0.00
2019-02-25T04:48:27.652Z,0.00
2019-02-25T04:49:27.631Z,0.00
2019-02-25T04:50:27.621Z,0.00
2019-02-25T04:51:27.633Z,0.00
2019-02-25T04:52:27.607Z,0.00
2019-02-25T04:53:27.604Z,0.00
2019-02-25T04:54:27.568Z,0.00
2019-02-25T04:55:27.577Z,0.00
2019-02-25T04:56:27.580Z,0.00
2019-02-25T04:57:27.546Z,0.00
2019-02-25T04:58:27.537Z,0.00
2019-02-25T04:59:27.520Z,0.00
2019-02-25T05:00:27.508Z,0.00
2019-02-25T05:01:27.582Z,0.00
2019-02-25T05:02:27.488Z,0.00
2019-02-25T05:03:27.483Z,0.00
2019-02-25T05:04:27.509Z,0.00
2019-02-25T05:05:27.462Z,0.00
2019-02-25T05:06:27.491Z,0.00
2019-02-25T05:07:27.431Z,0.00
2019-02-25T05:08:27.429Z,0.00
2019-02-25T05:09:27.427Z,0.00
2019-02-25T05:10:27.415Z,0.00
2019-02-25T05:11:27.440Z,0.00
2019-02-25T05:12:27.403Z,0.00
2019-02-25T05:13:27.374Z,0.00
2019-02-25T05:14:27.360Z,0.00
2019-02-25T05:15:27.364Z,0.00
2019-02-25T05:16:27.380Z,0.00
2019-02-25T05:17:27.331Z,0.00
2019-02-25T05:18:27.316Z,0.00
2019-02-25T05:19:27.302Z,0.00
2019-02-25T05:20:27.299Z,0.00
2019-02-25T05:21:27.312Z,0.00
2019-02-25T05:22:27.293Z,0.00
2019-02-25T05:23:27.267Z,0.00
2019-02-25T05:24:27.259Z,0.00
2019-02-25T05:25:27.262Z,0.00
2019-02-25T05:26:27.291Z,0.00
2019-02-25T05:27:27.239Z,0.00
2019-02-25T05:28:27.220Z,0.00
2019-02-25T05:29:27.201Z,0.00
2019-02-25T05:30:27.210Z,0.00
2019-02-25T05:31:27.184Z,0.00
2019-02-25T05:32:27.195Z,0.00
2019-02-25T05:33:27.177Z,0.00
2019-02-25T05:34:27.163Z,0.00
2019-02-25T05:35:27.163Z,0.00
2019-02-25T05:36:27.128Z,0.00
2019-02-25T05:37:27.154Z,0.00
2019-02-25T05:38:27.114Z,0.00
2019-02-25T05:39:27.119Z,0.00
2019-02-25T05:40:27.101Z,0.00
2019-02-25T05:41:27.080Z,0.00
2019-02-25T05:42:27.124Z,0.00
2019-02-25T05:43:27.160Z,0.00
2019-02-25T05:44:27.062Z,0.00
2019-02-25T05:45:27.067Z,0.00
2019-02-25T05:46:27.068Z,0.00
2019-02-25T05:47:27.071Z,0.00
2019-02-25T05:48:27.022Z,4.00
2019-02-25T05:49:27.004Z,4.00
2019-02-25T05:50:27.005Z,0.00
2019-02-25T05:51:27.001Z,0.00
2019-02-25T05:52:27.011Z,4.00
2019-02-25T05:53:26.985Z,8.00
2019-02-25T05:54:26.952Z,4.00
2019-02-25T05:55:26.935Z,4.00
2019-02-25T05:56:26.926Z,8.00
2019-02-25T05:57:26.937Z,8.00
2019-02-25T05:58:26.897Z,12.00
2019-02-25T05:59:26.897Z,12.00
2019-02-25T06:00:26.904Z,16.00
2019-02-25T06:01:26.867Z,20.00
2019-02-25T06:02:26.884Z,20.00
2019-02-25T06:03:26.868Z,28.00
2019-02-25T06:04:26.840Z,36.00
2019-02-25T06:05:26.844Z,36.00
2019-02-25T06:06:26.835Z,44.00
2019-02-25T06:07:26.850Z,56.00
2019-02-25T06:08:26.818Z,64.00
2019-02-25T06:09:26.808Z,76.00
2019-02-25T06:10:26.777Z,88.00
2019-02-25T06:11:26.813Z,100.00
2019-02-25T06:12:26.810Z,116.00
2019-02-25T06:13:26.753Z,136.00
2019-02-25T06:14:26.755Z,156.00
2019-02-25T06:15:26.735Z,176.00
2019-02-25T06:16:26.904Z,200.00
2019-02-25T06:17:26.751Z,224.00
2019-02-25T06:18:26.815Z,248.00
2019-02-25T06:19:26.691Z,276.00
2019-02-25T06:20:26.695Z,308.00
2019-02-25T06:21:26.679Z,336.00
2019-02-25T06:22:26.699Z,372.00
2019-02-25T06:23:26.637Z,412.00
2019-02-25T06:24:26.637Z,452.00
2019-02-25T06:25:26.630Z,492.00
2019-02-25T06:26:26.621Z,532.00
2019-02-25T06:27:30.591Z,584.00
2019-02-25T06:28:26.610Z,636.00
2019-02-25T06:29:26.581Z,692.00
2019-02-25T06:30:26.570Z,748.00
2019-02-25T06:31:26.561Z,812.00
2019-02-25T06:32:26.571Z,876.00
2019-02-25T06:33:26.543Z,944.00
2019-02-25T06:34:26.525Z,1016.00
2019-02-25T06:35:26.511Z,1088.00
2019-02-25T06:36:26.507Z,1160.00
2019-02-25T06:37:26.517Z,1236.00
2019-02-25T06:38:26.485Z,1304.00
2019-02-25T06:39:26.484Z,1372.00
2019-02-25T06:40:26.456Z,1444.00
2019-02-25T06:41:26.452Z,1512.00
2019-02-25T06:42:26.463Z,1584.00
2019-02-25T06:43:26.540Z,1652.00
2019-02-25T06:44:26.425Z,1716.00
2019-02-25T06:45:26.420Z,1784.00
2019-02-25T06:46:26.400Z,1856.00
2019-02-25T06:47:35.647Z,1920.00
2019-02-25T06:48:26.369Z,1992.00
2019-02-25T06:49:26.366Z,2060.00
2019-02-25T06:50:26.356Z,2128.00
2019-02-25T06:51:26.336Z,2196.00
2019-02-25T06:52:26.359Z,2264.00
2019-02-25T06:53:26.323Z,2328.00
2019-02-25T06:54:26.319Z,2392.00
2019-02-25T06:55:26.302Z,2460.00
2019-02-25T06:56:26.292Z,2524.00
2019-02-25T06:57:26.304Z,2592.00
2019-02-25T06:58:26.259Z,2656.00
2019-02-25T06:59:26.257Z,2716.00
2019-02-25T07:00:26.256Z,2780.00
2019-02-25T07:01:26.232Z,2840.00
2019-02-25T07:02:26.257Z,2916.00
2019-02-25T07:03:26.211Z,2992.00
2019-02-25T07:04:26.201Z,3064.00
2019-02-25T07:05:26.194Z,3132.00
2019-02-25T07:06:26.184Z,3196.00
2019-02-25T07:07:26.208Z,3256.00
2019-02-25T07:08:26.162Z,3320.00
2019-02-25T07:09:26.150Z,3380.00
2019-02-25T07:10:26.136Z,3448.00
2019-02-25T07:11:26.140Z,3512.00
2019-02-25T07:12:26.113Z,3564.00
2019-02-25T07:13:26.133Z,3616.00
2019-02-25T07:14:26.094Z,3672.00
2019-02-25T07:15:26.086Z,3736.00
2019-02-25T07:16:26.076Z,3792.00
2019-02-25T07:17:26.067Z,3844.00
2019-02-25T07:18:26.078Z,3896.00
2019-02-25T07:19:26.045Z,3948.00
2019-02-25T07:20:26.037Z,4000.00
2019-02-25T07:21:26.021Z,4040.00
2019-02-25T07:22:26.008Z,4076.00
2019-02-25T07:23:26.063Z,4120.00
2019-02-25T07:24:25.993Z,4168.00
2019-02-25T07:25:25.980Z,4208.00
2019-02-25T07:26:27.587Z,4248.00
2019-02-25T07:27:25.964Z,4296.00
2019-02-25T07:28:26.058Z,4344.00
2019-02-25T07:29:25.946Z,4404.00
2019-02-25T07:30:25.947Z,4468.00
2019-02-25T07:31:25.909Z,4708.00
2019-02-25T07:32:25.898Z,5024.00
2019-02-25T07:33:25.917Z,5196.00
2019-02-25T07:34:25.889Z,5328.00
2019-02-25T07:35:25.965Z,5404.00
2019-02-25T07:36:25.861Z,5460.00
2019-02-25T07:37:25.847Z,5560.00
2019-02-25T07:38:25.870Z,5648.00
2019-02-25T07:39:25.826Z,5700.00
2019-02-25T07:40:25.826Z,5728.00
2019-02-25T07:41:25.827Z,5780.00
2019-02-25T07:42:25.810Z,5828.00
2019-02-25T07:43:25.808Z,5960.00
2019-02-25T07:44:25.768Z,6128.00
2019-02-25T07:45:25.763Z,6272.00
2019-02-25T07:46:25.762Z,7164.00
2019-02-25T07:47:25.744Z,8076.00
2019-02-25T07:48:25.809Z,8972.00
2019-02-25T07:49:25.727Z,9504.00
2019-02-25T07:50:25.712Z,10068.00
2019-02-25T07:51:25.715Z,10116.00
2019-02-25T07:52:25.699Z,10056.00
2019-02-25T07:53:25.717Z,10360.00
2019-02-25T07:54:25.683Z,10616.00
2019-02-25T07:55:25.666Z,11992.00
2019-02-25T07:56:25.660Z,13188.00
2019-02-25T07:57:25.656Z,13948.00
2019-02-25T07:58:25.668Z,13800.00
2019-02-25T07:59:25.640Z,13792.00
2019-02-25T08:00:25.622Z,13308.00
2019-02-25T08:01:25.607Z,13008.00
2019-02-25T08:02:25.593Z,12824.00
2019-02-25T08:03:25.608Z,12760.00
2019-02-25T08:04:25.590Z,12688.00
2019-02-25T08:05:25.563Z,12900.00
2019-02-25T08:06:25.565Z,12940.00
2019-02-25T08:07:25.542Z,13096.00
2019-02-25T08:08:25.573Z,13152.00
2019-02-25T08:09:25.544Z,13396.00
2019-02-25T08:10:25.518Z,13556.00
2019-02-25T08:11:25.516Z,13440.00
2019-02-25T08:12:25.499Z,13360.00
2019-02-25T08:13:25.510Z,13228.00
2019-02-25T08:14:25.502Z,13100.00
2019-02-25T08:15:25.471Z,13652.00
2019-02-25T08:16:25.451Z,14348.00
2019-02-25T08:17:25.443Z,14900.00
2019-02-25T08:18:25.456Z,15432.00
2019-02-25T08:19:25.419Z,15688.00
2019-02-25T08:20:25.417Z,16736.00
2019-02-25T08:21:25.404Z,17216.00
2019-02-25T08:22:25.394Z,18048.00
2019-02-25T08:23:25.412Z,18336.00
2019-02-25T08:24:30.571Z,18528.00
2019-02-25T08:25:26.356Z,18304.00
2019-02-25T08:26:25.356Z,18464.00
2019-02-25T08:27:25.339Z,18528.00
2019-02-25T08:28:25.358Z,18112.00
2019-02-25T08:29:25.316Z,17760.00
2019-02-25T08:30:25.317Z,17568.00
2019-02-25T08:31:25.289Z,17536.00
2019-02-25T08:32:25.273Z,17792.00
2019-02-25T08:33:25.292Z,17920.00
2019-02-25T08:34:25.254Z,18368.00
2019-02-25T08:35:25.251Z,18688.00
2019-02-25T08:36:25.234Z,18848.00
2019-02-25T08:37:25.220Z,19104.00
2019-02-25T08:38:25.252Z,19168.00
2019-02-25T08:39:25.188Z,19136.00
2019-02-25T08:40:25.184Z,19360.00
2019-02-25T08:41:25.174Z,20032.00
2019-02-25T08:42:25.166Z,20416.00
2019-02-25T08:43:25.183Z,20608.00
2019-02-25T08:44:25.146Z,20864.00
2019-02-25T08:45:25.128Z,20960.00
2019-02-25T08:46:25.122Z,20928.00
2019-02-25T08:47:25.114Z,21504.00
2019-02-25T08:48:25.137Z,21664.00
2019-02-25T08:49:25.092Z,21568.00
2019-02-25T08:50:25.085Z,21632.00
2019-02-25T08:51:25.062Z,21728.00
2019-02-25T08:52:25.057Z,21984.00
2019-02-25T08:53:25.052Z,22496.00
2019-02-25T08:54:25.060Z,23232.00
2019-02-25T08:55:25.024Z,23584.00
2019-02-25T08:56:25.022Z,23360.00
2019-02-25T08:57:25.002Z,23840.00
2019-02-25T08:58:24.996Z,24064.00
2019-02-25T08:59:25.005Z,24192.00
2019-02-25T09:00:24.969Z,24192.00
2019-02-25T09:01:24.963Z,24512.00
2019-02-25T09:02:24.953Z,24832.00
2019-02-25T09:03:24.937Z,25600.00
2019-02-25T09:04:24.956Z,26848.00
2019-02-25T09:05:24.912Z,27424.00
2019-02-25T09:06:24.910Z,26560.00
2019-02-25T09:07:24.894Z,25984.00
2019-02-25T09:08:24.896Z,26048.00
2019-02-25T09:09:24.909Z,26400.00
2019-02-25T09:10:24.861Z,27168.00
2019-02-25T09:11:24.851Z,27008.00
2019-02-25T09:12:24.838Z,27712.00
2019-02-25T09:13:24.834Z,30624.00
2019-02-25T09:14:24.846Z,31712.00
2019-02-25T09:15:24.826Z,32064.00
2019-02-25T09:16:24.803Z,31008.00
2019-02-25T09:17:24.803Z,29856.00
2019-02-25T09:18:36.177Z,30432.00
2019-02-25T09:19:24.793Z,31744.00
2019-02-25T09:20:24.753Z,32448.00
2019-02-25T09:21:31.673Z,33472.00
2019-02-25T09:22:25.734Z,33440.00
2019-02-25T09:23:24.730Z,33664.00
2019-02-25T09:24:24.735Z,33920.00
2019-02-25T09:25:24.714Z,34624.00
2019-02-25T09:26:24.715Z,34688.00
2019-02-25T09:27:24.719Z,34464.00
2019-02-25T09:28:24.673Z,34144.00
2019-02-25T09:29:24.686Z,33856.00
2019-02-25T09:30:24.654Z,34080.00
2019-02-25T09:31:24.641Z,34656.00
2019-02-25T09:32:24.631Z,35520.00
2019-02-25T09:33:24.620Z,36064.00
2019-02-25T09:34:24.637Z,36448.00
2019-02-25T09:35:24.600Z,37056.00
2019-02-25T09:36:25.688Z,37536.00
2019-02-25T09:37:24.593Z,38272.00
2019-02-25T09:38:24.579Z,38656.00
2019-02-25T09:39:24.611Z,38976.00
2019-02-25T09:40:24.561Z,39232.00
2019-02-25T09:41:29.829Z,39072.00
2019-02-25T09:42:25.533Z,39168.00
2019-02-25T09:43:24.526Z,39360.00
2019-02-25T09:44:24.545Z,33056.00
2019-02-25T09:45:24.505Z,16424.00
2019-02-25T09:46:24.492Z,6524.00
2019-02-25T09:47:24.486Z,6380.00
2019-02-25T09:48:24.484Z,6352.00
2019-02-25T09:49:24.492Z,6340.00
2019-02-25T09:50:24.453Z,6344.00
2019-02-25T09:51:24.445Z,6380.00
2019-02-25T09:52:24.421Z,6404.00
2019-02-25T09:53:24.421Z,6408.00
2019-02-25T09:54:24.435Z,6420.00
2019-02-25T09:55:24.390Z,6444.00
2019-02-25T09:56:24.390Z,6456.00
2019-02-25T09:57:24.372Z,6468.00
2019-02-25T09:58:24.368Z,6476.00
2019-02-25T09:59:24.374Z,6480.00
2019-02-25T10:00:24.351Z,6492.00
2019-02-25T10:01:24.335Z,6504.00
2019-02-25T10:02:24.920Z,6512.00
2019-02-25T10:03:24.320Z,6548.00
2019-02-25T10:04:24.332Z,6540.00
2019-02-25T10:05:24.296Z,6536.00
2019-02-25T10:06:24.290Z,6540.00
2019-02-25T10:07:24.272Z,6544.00
2019-02-25T10:08:24.268Z,6572.00
2019-02-25T10:09:29.824Z,6572.00
2019-02-25T10:10:25.237Z,6580.00
2019-02-25T10:11:24.238Z,6584.00
2019-02-25T10:12:24.226Z,6596.00
2019-02-25T10:13:24.206Z,6604.00
2019-02-25T10:14:24.221Z,6620.00
2019-02-25T10:15:24.188Z,6632.00
2019-02-25T10:16:24.181Z,6640.00
2019-02-25T10:17:24.240Z,6656.00
2019-02-25T10:18:24.165Z,6668.00
2019-02-25T10:19:24.175Z,6688.00
2019-02-25T10:20:24.128Z,6692.00
2019-02-25T10:21:24.124Z,6708.00
2019-02-25T10:22:24.113Z,6724.00
2019-02-25T10:23:24.100Z,6736.00
2019-02-25T10:24:24.129Z,6760.00
2019-02-25T10:25:24.085Z,6764.00
2019-02-25T10:26:24.060Z,6768.00
2019-02-25T10:27:24.063Z,6784.00
2019-02-25T10:28:24.052Z,6792.00
2019-02-25T10:29:24.060Z,6812.00
2019-02-25T10:30:24.063Z,6828.00
2019-02-25T10:31:24.016Z,6852.00
2019-02-25T10:32:25.960Z,6860.00
2019-02-25T10:33:23.996Z,6864.00
2019-02-25T10:34:24.142Z,6864.00
2019-02-25T10:35:24.923Z,6876.00
2019-02-25T10:36:23.960Z,6884.00
2019-02-25T10:37:23.952Z,6904.00
2019-02-25T10:38:23.948Z,6908.00
2019-02-25T10:39:23.929Z,6916.00
2019-02-25T10:40:25.398Z,6932.00
2019-02-25T10:41:25.565Z,6932.00
2019-02-25T10:42:23.890Z,6932.00
2019-02-25T10:43:25.554Z,6936.00
2019-02-25T10:44:23.884Z,6944.00
2019-02-25T10:45:23.886Z,6952.00
2019-02-25T10:46:23.856Z,6964.00
2019-02-25T10:47:23.860Z,6976.00
2019-02-25T10:48:25.770Z,6984.00
2019-02-25T10:49:24.594Z,6996.00
2019-02-25T10:50:23.838Z,7000.00
2019-02-25T10:51:23.854Z,7008.00
2019-02-25T10:52:23.789Z,7012.00
2019-02-25T10:53:23.779Z,7016.00
2019-02-25T10:54:25.313Z,7008.00
2019-02-25T10:55:23.783Z,7004.00
2019-02-25T10:56:25.438Z,7008.00
2019-02-25T10:57:24.570Z,7000.00
2019-02-25T10:58:25.182Z,6996.00
2019-02-25T10:59:23.726Z,6984.00
2019-02-25T11:00:23.734Z,6984.00
2019-02-25T11:01:24.530Z,6984.00
2019-02-25T11:02:23.694Z,6972.00
2019-02-25T11:03:23.681Z,6952.00
2019-02-25T11:04:24.566Z,6956.00
2019-02-25T11:05:25.437Z,6960.00
2019-02-25T11:06:25.131Z,6924.00
2019-02-25T11:07:23.634Z,6900.00
2019-02-25T11:08:23.634Z,6924.00
2019-02-25T11:09:23.621Z,6948.00
2019-02-25T11:10:23.632Z,6960.00
2019-02-25T11:11:25.436Z,6972.00
2019-02-25T11:12:24.226Z,6988.00
2019-02-25T11:13:25.405Z,6996.00
2019-02-25T11:14:23.558Z,7016.00
2019-02-25T11:15:23.574Z,7024.00
2019-02-25T11:16:23.538Z,7028.00
2019-02-25T11:17:24.439Z,7028.00
2019-02-25T11:18:24.519Z,7028.00
2019-02-25T11:19:24.908Z,7032.00
2019-02-25T11:20:23.534Z,7032.00
2019-02-25T11:21:23.493Z,7032.00
2019-02-25T11:22:23.480Z,7036.00
2019-02-25T11:23:23.470Z,7100.00
2019-02-25T11:24:25.358Z,7116.00
2019-02-25T11:25:24.154Z,7136.00
2019-02-25T11:26:24.282Z,7104.00
2019-02-25T11:27:23.426Z,7048.00
2019-02-25T11:28:25.894Z,6988.00
2019-02-25T11:29:23.408Z,6928.00
2019-02-25T11:30:24.017Z,6872.00
2019-02-25T11:31:25.145Z,6856.00
2019-02-25T11:32:24.418Z,6860.00
2019-02-25T11:33:25.308Z,6900.00
2019-02-25T11:34:23.346Z,6924.00
2019-02-25T11:35:23.376Z,6856.00
2019-02-25T11:36:23.325Z,6832.00
2019-02-25T11:37:24.630Z,6848.00
2019-02-25T11:38:24.179Z,6852.00
2019-02-25T11:39:25.173Z,6848.00
2019-02-25T11:40:23.289Z,6836.00
2019-02-25T11:41:23.300Z,6832.00
2019-02-25T11:42:23.314Z,6824.00
2019-02-25T11:43:23.249Z,6828.00
2019-02-25T11:44:24.095Z,6832.00
2019-02-25T11:45:23.249Z,6836.00
2019-02-25T11:46:23.252Z,6836.00
2019-02-25T11:47:23.208Z,6840.00
2019-02-25T11:48:23.192Z,6848.00
2019-02-25T11:49:23.195Z,6856.00
2019-02-25T11:50:23.177Z,6864.00
2019-02-25T11:51:23.191Z,6876.00
2019-02-25T11:52:23.157Z,6884.00
2019-02-25T11:53:23.154Z,6896.00
2019-02-25T11:54:23.133Z,6896.00
2019-02-25T11:55:23.125Z,6900.00
2019-02-25T11:56:23.143Z,6912.00
2019-02-25T11:57:23.103Z,6952.00
2019-02-25T11:58:23.099Z,6920.00
2019-02-25T11:59:23.090Z,6916.00
2019-02-25T12:00:23.103Z,6912.00
2019-02-25T12:01:23.080Z,6892.00
2019-02-25T12:02:25.939Z,6888.00
2019-02-25T12:03:23.046Z,6888.00
2019-02-25T12:04:23.029Z,6928.00
2019-02-25T12:05:23.016Z,6988.00
2019-02-25T12:06:23.041Z,7052.00
2019-02-25T12:07:22.993Z,7104.00
2019-02-25T12:08:22.994Z,7152.00
2019-02-25T12:09:22.977Z,7220.00
2019-02-25T12:10:22.957Z,7268.00
2019-02-25T12:11:22.980Z,7336.00
2019-02-25T12:12:22.968Z,7404.00
2019-02-25T12:13:22.929Z,7488.00
2019-02-25T12:14:22.909Z,7600.00
2019-02-25T12:15:22.914Z,7660.00
2019-02-25T12:16:22.923Z,7740.00
2019-02-25T12:17:22.874Z,7812.00
2019-02-25T12:18:22.869Z,7876.00
2019-02-25T12:19:22.860Z,7940.00
2019-02-25T12:20:22.841Z,8008.00
2019-02-25T12:21:22.861Z,8080.00
2019-02-25T12:22:22.825Z,8156.00
2019-02-25T12:23:22.823Z,8232.00
2019-02-25T12:24:22.812Z,8332.00
2019-02-25T12:25:22.799Z,8392.00
2019-02-25T12:26:22.821Z,8460.00
2019-02-25T12:27:22.785Z,8520.00
2019-02-25T12:28:22.771Z,8588.00
2019-02-25T12:29:22.753Z,8652.00
2019-02-25T12:30:22.752Z,8732.00
2019-02-25T12:31:22.769Z,8776.00
2019-02-25T12:32:22.720Z,8824.00
2019-02-25T12:33:22.711Z,8888.00
2019-02-25T12:34:22.703Z,8952.00
2019-02-25T12:35:22.694Z,8984.00
2019-02-25T12:36:22.705Z,9032.00